sensor_id;sensor_type;location;lat;lon;timestamp;temperature;humidity
52879;DHT22;38747;53.140;6.498;2022-07-18T00:00:28;15.70;99.90
52879;DHT22;38747;53.140;6.498;2022-07-18T00:02:53;15.60;99.90
52879;DHT22;38747;53.140;6.498;2022-07-18T00:05:19;15.60;99.90
52879;DHT22;38747;53.140;6.498;2022-07-18T00:07:44;15.60;99.90
52879;DHT22;38747;53.140;6.498;2022-07-18T00:10:10;15.50;99.90
52879;DHT22;38747;53.140;6.498;2022-07-18T00:12:35;15.50;99.90
52879;DHT22;38747;53.140;6.498;2022-07-18T00:15:02;15.50;99.90
52879;DHT22;38747;53.140;6.498;2022-07-18T00:17:27;15.40;99.90
52879;DHT22;38747;53.140;6.498;2022-07-18T00:19:53;15.40;99.90
52879;DHT22;38747;53.140;6.498;2022-07-18T00:22:19;15.30;99.90
52879;DHT22;38747;53.140;6.498;2022-07-18T00:24:44;15.30;99.90
52879;DHT22;38747;53.140;6.498;2022-07-18T00:27:10;15.30;99.90
52879;DHT22;38747;53.140;6.498;2022-07-18T00:29:35;15.30;99.90
52879;DHT22;38747;53.140;6.498;2022-07-18T00:32:03;15.20;99.90
52879;DHT22;38747;53.140;6.498;2022-07-18T00:34:29;15.20;99.90
52879;DHT22;38747;53.140;6.498;2022-07-18T00:36:54;15.20;99.90
52879;DHT22;38747;53.140;6.498;2022-07-18T00:39:20;15.20;99.90
52879;DHT22;38747;53.140;6.498;2022-07-18T00:41:46;15.30;99.90
52879;DHT22;38747;53.140;6.498;2022-07-18T00:44:20;15.20;99.90
52879;DHT22;38747;53.140;6.498;2022-07-18T00:46:49;15.20;99.90
52879;DHT22;38747;53.140;6.498;2022-07-18T00:49:14;15.20;99.90
52879;DHT22;38747;53.140;6.498;2022-07-18T00:51:40;15.10;99.90
52879;DHT22;38747;53.140;6.498;2022-07-18T00:54:07;15.10;99.90
52879;DHT22;38747;53.140;6.498;2022-07-18T00:56:33;15.10;99.90
52879;DHT22;38747;53.140;6.498;2022-07-18T00:58:59;15.10;99.90
52879;DHT22;38747;53.140;6.498;2022-07-18T01:01:24;15.10;99.90
52879;DHT22;38747;53.140;6.498;2022-07-18T01:04:21;15.00;99.90
52879;DHT22;38747;53.140;6.498;2022-07-18T01:06:48;15.00;99.90
52879;DHT22;38747;53.140;6.498;2022-07-18T01:09:15;15.00;99.90
52879;DHT22;38747;53.140;6.498;2022-07-18T01:11:43;15.00;99.90
52879;DHT22;38747;53.140;6.498;2022-07-18T01:14:10;15.00;99.90
52879;DHT22;38747;53.140;6.498;2022-07-18T01:16:35;14.90;99.90
52879;DHT22;38747;53.140;6.498;2022-07-18T01:19:02;14.90;99.90
52879;DHT22;38747;53.140;6.498;2022-07-18T01:21:28;14.90;99.90
52879;DHT22;38747;53.140;6.498;2022-07-18T01:23:54;14.80;99.90
52879;DHT22;38747;53.140;6.498;2022-07-18T01:26:20;14.90;99.90
52879;DHT22;38747;53.140;6.498;2022-07-18T01:28:46;14.80;99.90
52879;DHT22;38747;53.140;6.498;2022-07-18T01:31:12;14.80;99.90
52879;DHT22;38747;53.140;6.498;2022-07-18T01:33:38;14.80;99.90
52879;DHT22;38747;53.140;6.498;2022-07-18T01:36:05;14.80;99.90
52879;DHT22;38747;53.140;6.498;2022-07-18T01:38:32;14.70;99.90
52879;DHT22;38747;53.140;6.498;2022-07-18T01:41:00;14.70;99.90
52879;DHT22;38747;53.140;6.498;2022-07-18T01:43:27;14.60;99.90
52879;DHT22;38747;53.140;6.498;2022-07-18T01:45:53;14.70;99.90
52879;DHT22;38747;53.140;6.498;2022-07-18T01:48:18;14.60;99.90
52879;DHT22;38747;53.140;6.498;2022-07-18T01:50:45;14.60;99.90
52879;DHT22;38747;53.140;6.498;2022-07-18T01:53:11;14.60;99.90
52879;DHT22;38747;53.140;6.498;2022-07-18T01:55:36;14.60;99.90
52879;DHT22;38747;53.140;6.498;2022-07-18T01:58:02;14.60;99.90
52879;DHT22;38747;53.140;6.498;2022-07-18T02:00:28;14.60;99.90
52879;DHT22;38747;53.140;6.498;2022-07-18T02:02:53;14.50;99.90
52879;DHT22;38747;53.140;6.498;2022-07-18T02:05:19;14.50;99.90
52879;DHT22;38747;53.140;6.498;2022-07-18T02:07:44;14.40;99.90
52879;DHT22;38747;53.140;6.498;2022-07-18T02:10:15;14.40;99.90
52879;DHT22;38747;53.140;6.498;2022-07-18T02:12:42;14.30;99.90
52879;DHT22;38747;53.140;6.498;2022-07-18T02:15:09;14.30;99.90
52879;DHT22;38747;53.140;6.498;2022-07-18T02:17:35;14.30;99.90
52879;DHT22;38747;53.140;6.498;2022-07-18T02:20:02;14.40;99.90
52879;DHT22;38747;53.140;6.498;2022-07-18T02:22:27;14.30;99.90
52879;DHT22;38747;53.140;6.498;2022-07-18T02:24:53;14.30;99.90
52879;DHT22;38747;53.140;6.498;2022-07-18T02:27:20;14.30;99.90
52879;DHT22;38747;53.140;6.498;2022-07-18T02:29:46;14.30;99.90
52879;DHT22;38747;53.140;6.498;2022-07-18T02:32:11;14.30;99.90
52879;DHT22;38747;53.140;6.498;2022-07-18T02:34:37;14.30;99.90
52879;DHT22;38747;53.140;6.498;2022-07-18T02:37:03;14.30;99.90
52879;DHT22;38747;53.140;6.498;2022-07-18T02:39:29;14.30;99.90
52879;DHT22;38747;53.140;6.498;2022-07-18T02:41:55;14.30;99.90
52879;DHT22;38747;53.140;6.498;2022-07-18T02:44:21;14.20;99.90
52879;DHT22;38747;53.140;6.498;2022-07-18T02:46:47;14.20;99.90
52879;DHT22;38747;53.140;6.498;2022-07-18T02:49:13;14.20;99.90
52879;DHT22;38747;53.140;6.498;2022-07-18T02:51:54;14.10;99.90
52879;DHT22;38747;53.140;6.498;2022-07-18T02:54:20;14.10;99.90
52879;DHT22;38747;53.140;6.498;2022-07-18T02:56:45;14.10;99.90
52879;DHT22;38747;53.140;6.498;2022-07-18T02:59:11;14.10;99.90
52879;DHT22;38747;53.140;6.498;2022-07-18T03:01:36;14.10;99.90
52879;DHT22;38747;53.140;6.498;2022-07-18T03:04:02;14.10;99.90
52879;DHT22;38747;53.140;6.498;2022-07-18T03:06:28;14.10;99.90
52879;DHT22;38747;53.140;6.498;2022-07-18T03:08:54;14.10;99.90
52879;DHT22;38747;53.140;6.498;2022-07-18T03:11:19;14.10;99.90
52879;DHT22;38747;53.140;6.498;2022-07-18T03:13:45;14.10;99.90
52879;DHT22;38747;53.140;6.498;2022-07-18T03:16:10;14.10;99.90
52879;DHT22;38747;53.140;6.498;2022-07-18T03:18:36;14.10;99.90
52879;DHT22;38747;53.140;6.498;2022-07-18T03:21:01;14.10;99.90
52879;DHT22;38747;53.140;6.498;2022-07-18T03:23:27;14.20;99.90
52879;DHT22;38747;53.140;6.498;2022-07-18T03:25:52;14.20;99.90
52879;DHT22;38747;53.140;6.498;2022-07-18T03:28:18;14.10;99.90
52879;DHT22;38747;53.140;6.498;2022-07-18T03:30:44;14.20;99.90
52879;DHT22;38747;53.140;6.498;2022-07-18T03:33:09;14.20;99.90
52879;DHT22;38747;53.140;6.498;2022-07-18T03:35:35;14.20;99.90
52879;DHT22;38747;53.140;6.498;2022-07-18T03:38:01;14.20;99.90
52879;DHT22;38747;53.140;6.498;2022-07-18T03:40:27;14.20;99.90
52879;DHT22;38747;53.140;6.498;2022-07-18T03:42:52;14.20;99.90
52879;DHT22;38747;53.140;6.498;2022-07-18T03:45:18;14.20;99.90
52879;DHT22;38747;53.140;6.498;2022-07-18T03:47:43;14.20;99.90
52879;DHT22;38747;53.140;6.498;2022-07-18T03:50:09;14.10;99.90
52879;DHT22;38747;53.140;6.498;2022-07-18T03:52:35;14.20;99.90
52879;DHT22;38747;53.140;6.498;2022-07-18T03:55:00;14.20;99.90
52879;DHT22;38747;53.140;6.498;2022-07-18T03:57:27;14.20;99.90
52879;DHT22;38747;53.140;6.498;2022-07-18T03:59:53;14.20;99.90
52879;DHT22;38747;53.140;6.498;2022-07-18T04:02:18;14.20;99.90
52879;DHT22;38747;53.140;6.498;2022-07-18T04:04:44;14.20;99.90
52879;DHT22;38747;53.140;6.498;2022-07-18T04:07:09;14.20;99.90
52879;DHT22;38747;53.140;6.498;2022-07-18T04:09:35;14.20;99.90
52879;DHT22;38747;53.140;6.498;2022-07-18T04:12:00;14.20;99.90
52879;DHT22;38747;53.140;6.498;2022-07-18T04:14:26;14.20;99.90
52879;DHT22;38747;53.140;6.498;2022-07-18T04:16:51;14.30;99.90
52879;DHT22;38747;53.140;6.498;2022-07-18T04:19:19;14.30;99.90
52879;DHT22;38747;53.140;6.498;2022-07-18T04:21:45;14.30;99.90
52879;DHT22;38747;53.140;6.498;2022-07-18T04:24:11;14.40;99.90
52879;DHT22;38747;53.140;6.498;2022-07-18T04:26:36;14.40;99.90
52879;DHT22;38747;53.140;6.498;2022-07-18T04:29:02;14.40;99.90
52879;DHT22;38747;53.140;6.498;2022-07-18T04:31:29;14.50;99.90
52879;DHT22;38747;53.140;6.498;2022-07-18T04:33:55;14.50;99.90
52879;DHT22;38747;53.140;6.498;2022-07-18T04:36:20;14.60;99.90
52879;DHT22;38747;53.140;6.498;2022-07-18T04:38:46;14.70;99.90
52879;DHT22;38747;53.140;6.498;2022-07-18T04:41:12;14.70;99.90
52879;DHT22;38747;53.140;6.498;2022-07-18T04:43:37;14.80;99.90
52879;DHT22;38747;53.140;6.498;2022-07-18T04:46:03;14.80;99.90
52879;DHT22;38747;53.140;6.498;2022-07-18T04:48:28;14.90;99.90
52879;DHT22;38747;53.140;6.498;2022-07-18T04:50:54;15.00;99.90
52879;DHT22;38747;53.140;6.498;2022-07-18T04:53:20;15.00;99.90
52879;DHT22;38747;53.140;6.498;2022-07-18T04:55:45;15.10;99.90
52879;DHT22;38747;53.140;6.498;2022-07-18T04:58:11;15.20;99.90
52879;DHT22;38747;53.140;6.498;2022-07-18T05:00:37;15.20;99.90
52879;DHT22;38747;53.140;6.498;2022-07-18T05:03:02;15.30;99.90
52879;DHT22;38747;53.140;6.498;2022-07-18T05:05:28;15.30;99.90
52879;DHT22;38747;53.140;6.498;2022-07-18T05:07:54;15.40;99.90
52879;DHT22;38747;53.140;6.498;2022-07-18T05:10:22;15.40;99.90
52879;DHT22;38747;53.140;6.498;2022-07-18T05:12:50;15.60;99.90
52879;DHT22;38747;53.140;6.498;2022-07-18T05:15:17;15.60;99.90
52879;DHT22;38747;53.140;6.498;2022-07-18T05:17:44;15.60;99.90
52879;DHT22;38747;53.140;6.498;2022-07-18T05:20:12;15.70;99.90
52879;DHT22;38747;53.140;6.498;2022-07-18T05:22:38;15.70;99.90
52879;DHT22;38747;53.140;6.498;2022-07-18T05:25:04;15.80;99.90
52879;DHT22;38747;53.140;6.498;2022-07-18T05:27:30;15.80;99.90
52879;DHT22;38747;53.140;6.498;2022-07-18T05:29:56;15.90;99.90
52879;DHT22;38747;53.140;6.498;2022-07-18T05:32:22;15.90;99.90
52879;DHT22;38747;53.140;6.498;2022-07-18T05:34:47;16.00;99.90
52879;DHT22;38747;53.140;6.498;2022-07-18T05:37:13;16.00;99.90
52879;DHT22;38747;53.140;6.498;2022-07-18T05:39:38;16.10;99.90
52879;DHT22;38747;53.140;6.498;2022-07-18T05:42:04;16.10;99.90
52879;DHT22;38747;53.140;6.498;2022-07-18T05:44:30;16.10;99.90
52879;DHT22;38747;53.140;6.498;2022-07-18T05:46:56;16.20;99.90
52879;DHT22;38747;53.140;6.498;2022-07-18T05:49:21;16.20;99.90
52879;DHT22;38747;53.140;6.498;2022-07-18T05:51:47;16.20;99.90
52879;DHT22;38747;53.140;6.498;2022-07-18T05:54:12;16.30;99.90
52879;DHT22;38747;53.140;6.498;2022-07-18T05:56:45;16.40;99.90
52879;DHT22;38747;53.140;6.498;2022-07-18T05:59:10;16.40;99.90
52879;DHT22;38747;53.140;6.498;2022-07-18T06:01:36;16.50;99.90
52879;DHT22;38747;53.140;6.498;2022-07-18T06:04:01;16.60;99.90
52879;DHT22;38747;53.140;6.498;2022-07-18T06:06:27;16.70;99.90
52879;DHT22;38747;53.140;6.498;2022-07-18T06:08:52;16.80;99.90
52879;DHT22;38747;53.140;6.498;2022-07-18T06:11:18;17.00;99.90
52879;DHT22;38747;53.140;6.498;2022-07-18T06:13:43;17.10;99.90
52879;DHT22;38747;53.140;6.498;2022-07-18T06:16:10;17.10;99.90
52879;DHT22;38747;53.140;6.498;2022-07-18T06:18:35;17.20;99.90
52879;DHT22;38747;53.140;6.498;2022-07-18T06:21:02;17.30;99.90
52879;DHT22;38747;53.140;6.498;2022-07-18T06:23:28;17.40;99.90
52879;DHT22;38747;53.140;6.498;2022-07-18T06:25:54;17.50;99.90
52879;DHT22;38747;53.140;6.498;2022-07-18T06:28:20;17.60;99.90
52879;DHT22;38747;53.140;6.498;2022-07-18T06:30:45;17.70;99.90
52879;DHT22;38747;53.140;6.498;2022-07-18T06:33:11;17.90;99.90
52879;DHT22;38747;53.140;6.498;2022-07-18T06:35:39;18.00;99.90
52879;DHT22;38747;53.140;6.498;2022-07-18T06:38:05;18.10;99.90
52879;DHT22;38747;53.140;6.498;2022-07-18T06:40:31;18.10;99.90
52879;DHT22;38747;53.140;6.498;2022-07-18T06:42:56;18.20;99.90
52879;DHT22;38747;53.140;6.498;2022-07-18T06:45:22;18.20;99.90
52879;DHT22;38747;53.140;6.498;2022-07-18T06:47:47;18.10;99.90
52879;DHT22;38747;53.140;6.498;2022-07-18T06:50:13;18.20;99.90
52879;DHT22;38747;53.140;6.498;2022-07-18T06:52:44;18.20;99.90
52879;DHT22;38747;53.140;6.498;2022-07-18T06:55:11;18.30;99.90
52879;DHT22;38747;53.140;6.498;2022-07-18T06:57:37;18.30;99.90
52879;DHT22;38747;53.140;6.498;2022-07-18T07:00:04;18.40;99.90
52879;DHT22;38747;53.140;6.498;2022-07-18T07:02:30;18.50;99.90
52879;DHT22;38747;53.140;6.498;2022-07-18T07:04:56;18.60;99.90
52879;DHT22;38747;53.140;6.498;2022-07-18T07:07:21;18.70;99.90
52879;DHT22;38747;53.140;6.498;2022-07-18T07:09:47;18.80;99.90
52879;DHT22;38747;53.140;6.498;2022-07-18T07:12:12;19.00;99.90
52879;DHT22;38747;53.140;6.498;2022-07-18T07:14:38;19.10;99.90
52879;DHT22;38747;53.140;6.498;2022-07-18T07:17:04;19.30;99.90
52879;DHT22;38747;53.140;6.498;2022-07-18T07:19:29;19.30;99.90
52879;DHT22;38747;53.140;6.498;2022-07-18T07:21:55;19.40;99.90
52879;DHT22;38747;53.140;6.498;2022-07-18T07:24:21;19.50;99.90
52879;DHT22;38747;53.140;6.498;2022-07-18T07:26:47;19.60;99.90
52879;DHT22;38747;53.140;6.498;2022-07-18T07:29:13;19.70;99.90
52879;DHT22;38747;53.140;6.498;2022-07-18T07:31:40;19.80;99.90
52879;DHT22;38747;53.140;6.498;2022-07-18T07:34:06;19.80;99.90
52879;DHT22;38747;53.140;6.498;2022-07-18T07:36:31;19.90;99.90
52879;DHT22;38747;53.140;6.498;2022-07-18T07:38:57;19.90;99.90
52879;DHT22;38747;53.140;6.498;2022-07-18T07:41:22;20.00;99.90
52879;DHT22;38747;53.140;6.498;2022-07-18T07:43:48;20.10;99.90
52879;DHT22;38747;53.140;6.498;2022-07-18T07:46:14;20.20;99.90
52879;DHT22;38747;53.140;6.498;2022-07-18T07:48:40;20.30;99.90
52879;DHT22;38747;53.140;6.498;2022-07-18T07:51:05;20.40;99.90
52879;DHT22;38747;53.140;6.498;2022-07-18T07:53:31;20.60;99.90
52879;DHT22;38747;53.140;6.498;2022-07-18T07:55:57;20.80;99.90
52879;DHT22;38747;53.140;6.498;2022-07-18T07:58:22;20.90;99.90
52879;DHT22;38747;53.140;6.498;2022-07-18T08:00:48;21.00;99.90
52879;DHT22;38747;53.140;6.498;2022-07-18T08:03:14;21.10;99.90
52879;DHT22;38747;53.140;6.498;2022-07-18T08:05:49;21.30;99.90
52879;DHT22;38747;53.140;6.498;2022-07-18T08:08:15;21.40;99.90
52879;DHT22;38747;53.140;6.498;2022-07-18T08:10:41;21.50;99.90
52879;DHT22;38747;53.140;6.498;2022-07-18T08:13:07;21.60;99.90
52879;DHT22;38747;53.140;6.498;2022-07-18T08:15:33;21.70;99.90
52879;DHT22;38747;53.140;6.498;2022-07-18T08:17:58;21.80;99.90
52879;DHT22;38747;53.140;6.498;2022-07-18T08:20:24;21.80;99.90
52879;DHT22;38747;53.140;6.498;2022-07-18T08:23:01;21.90;99.90
52879;DHT22;38747;53.140;6.498;2022-07-18T08:25:28;22.00;99.90
52879;DHT22;38747;53.140;6.498;2022-07-18T08:27:54;22.10;99.90
52879;DHT22;38747;53.140;6.498;2022-07-18T08:30:21;22.20;99.90
52879;DHT22;38747;53.140;6.498;2022-07-18T08:32:47;22.40;99.90
52879;DHT22;38747;53.140;6.498;2022-07-18T08:35:13;22.50;99.90
52879;DHT22;38747;53.140;6.498;2022-07-18T08:37:38;22.70;99.90
52879;DHT22;38747;53.140;6.498;2022-07-18T08:40:04;22.90;99.90
52879;DHT22;38747;53.140;6.498;2022-07-18T08:42:33;23.10;99.90
52879;DHT22;38747;53.140;6.498;2022-07-18T08:44:59;23.20;99.90
52879;DHT22;38747;53.140;6.498;2022-07-18T08:47:27;23.20;99.90
52879;DHT22;38747;53.140;6.498;2022-07-18T08:49:55;23.30;99.90
52879;DHT22;38747;53.140;6.498;2022-07-18T08:52:21;23.40;99.90
52879;DHT22;38747;53.140;6.498;2022-07-18T08:54:47;23.40;99.90
52879;DHT22;38747;53.140;6.498;2022-07-18T08:57:15;23.40;99.90
52879;DHT22;38747;53.140;6.498;2022-07-18T08:59:41;23.40;99.90
52879;DHT22;38747;53.140;6.498;2022-07-18T09:02:07;23.30;99.90
52879;DHT22;38747;53.140;6.498;2022-07-18T09:04:38;23.30;99.90
52879;DHT22;38747;53.140;6.498;2022-07-18T09:07:05;23.30;99.90
52879;DHT22;38747;53.140;6.498;2022-07-18T09:09:31;23.30;99.90
52879;DHT22;38747;53.140;6.498;2022-07-18T09:12:00;23.40;99.90
52879;DHT22;38747;53.140;6.498;2022-07-18T09:14:39;23.50;99.90
52879;DHT22;38747;53.140;6.498;2022-07-18T09:19:43;23.90;99.90
52879;DHT22;38747;53.140;6.498;2022-07-18T09:22:15;24.10;99.90
52879;DHT22;38747;53.140;6.498;2022-07-18T09:27:37;24.30;99.80
52879;DHT22;38747;53.140;6.498;2022-07-18T09:32:53;24.60;99.90
52879;DHT22;38747;53.140;6.498;2022-07-18T09:35:24;24.80;99.90
52879;DHT22;38747;53.140;6.498;2022-07-18T09:38:00;24.90;98.80
52879;DHT22;38747;53.140;6.498;2022-07-18T09:40:30;25.00;98.50
52879;DHT22;38747;53.140;6.498;2022-07-18T09:43:02;25.20;99.80
52879;DHT22;38747;53.140;6.498;2022-07-18T09:45:31;25.30;98.10
52879;DHT22;38747;53.140;6.498;2022-07-18T09:48:08;25.30;95.80
52879;DHT22;38747;53.140;6.498;2022-07-18T09:53:09;25.40;95.80
52879;DHT22;38747;53.140;6.498;2022-07-18T09:55:38;25.50;92.70
52879;DHT22;38747;53.140;6.498;2022-07-18T09:58:07;25.60;91.60
52879;DHT22;38747;53.140;6.498;2022-07-18T10:00:35;25.80;92.60
52879;DHT22;38747;53.140;6.498;2022-07-18T10:03:03;26.00;91.90
52879;DHT22;38747;53.140;6.498;2022-07-18T10:05:31;26.20;90.10
52879;DHT22;38747;53.140;6.498;2022-07-18T10:08:02;26.20;89.50
52879;DHT22;38747;53.140;6.498;2022-07-18T10:10:29;26.30;90.10
52879;DHT22;38747;53.140;6.498;2022-07-18T10:12:57;26.40;90.20
52879;DHT22;38747;53.140;6.498;2022-07-18T10:15:25;26.40;89.70
52879;DHT22;38747;53.140;6.498;2022-07-18T10:17:51;26.40;85.30
52879;DHT22;38747;53.140;6.498;2022-07-18T10:20:18;26.40;83.90
52879;DHT22;38747;53.140;6.498;2022-07-18T10:22:52;26.60;84.30
52879;DHT22;38747;53.140;6.498;2022-07-18T10:25:21;26.70;82.70
52879;DHT22;38747;53.140;6.498;2022-07-18T10:30:18;26.90;79.20
52879;DHT22;38747;53.140;6.498;2022-07-18T10:32:53;27.00;81.10
52879;DHT22;38747;53.140;6.498;2022-07-18T10:38:23;27.30;76.60
52879;DHT22;38747;53.140;6.498;2022-07-18T10:41:12;27.50;81.20
52879;DHT22;38747;53.140;6.498;2022-07-18T10:43:43;27.70;78.30
52879;DHT22;38747;53.140;6.498;2022-07-18T10:46:10;27.90;79.50
52879;DHT22;38747;53.140;6.498;2022-07-18T10:51:08;28.00;77.70
52879;DHT22;38747;53.140;6.498;2022-07-18T10:58:58;28.20;76.90
52879;DHT22;38747;53.140;6.498;2022-07-18T11:01:25;28.30;75.30
52879;DHT22;38747;53.140;6.498;2022-07-18T11:07:06;28.40;75.50
52879;DHT22;38747;53.140;6.498;2022-07-18T11:09:39;28.60;70.00
52879;DHT22;38747;53.140;6.498;2022-07-18T11:12:27;28.80;73.30
52879;DHT22;38747;53.140;6.498;2022-07-18T11:20:24;28.90;65.80
52879;DHT22;38747;53.140;6.498;2022-07-18T11:22:50;29.00;70.20
52879;DHT22;38747;53.140;6.498;2022-07-18T11:25:17;29.00;68.10
52879;DHT22;38747;53.140;6.498;2022-07-18T11:27:44;29.10;68.30
52879;DHT22;38747;53.140;6.498;2022-07-18T11:30:15;29.20;67.60
52879;DHT22;38747;53.140;6.498;2022-07-18T11:32:41;29.30;68.60
52879;DHT22;38747;53.140;6.498;2022-07-18T11:35:07;29.50;68.40
52879;DHT22;38747;53.140;6.498;2022-07-18T11:37:35;29.60;68.60
52879;DHT22;38747;53.140;6.498;2022-07-18T11:40:08;29.70;66.90
52879;DHT22;38747;53.140;6.498;2022-07-18T11:42:38;29.70;62.90
52879;DHT22;38747;53.140;6.498;2022-07-18T11:45:11;29.70;67.40
52879;DHT22;38747;53.140;6.498;2022-07-18T11:47:51;29.80;64.40
52879;DHT22;38747;53.140;6.498;2022-07-18T11:50:26;29.80;63.70
52879;DHT22;38747;53.140;6.498;2022-07-18T11:52:56;30.00;64.20
52879;DHT22;38747;53.140;6.498;2022-07-18T11:55:35;30.00;62.10
52879;DHT22;38747;53.140;6.498;2022-07-18T11:58:12;30.10;61.00
52879;DHT22;38747;53.140;6.498;2022-07-18T12:00:39;30.10;60.30
52879;DHT22;38747;53.140;6.498;2022-07-18T12:03:20;30.10;62.10
52879;DHT22;38747;53.140;6.498;2022-07-18T12:05:50;30.10;62.20
52879;DHT22;38747;53.140;6.498;2022-07-18T12:08:38;30.10;62.30
52879;DHT22;38747;53.140;6.498;2022-07-18T12:11:17;30.10;63.60
52879;DHT22;38747;53.140;6.498;2022-07-18T12:16:33;30.00;62.30
52879;DHT22;38747;53.140;6.498;2022-07-18T12:21:46;30.00;66.10
52879;DHT22;38747;53.140;6.498;2022-07-18T12:26:44;29.60;62.70
52879;DHT22;38747;53.140;6.498;2022-07-18T12:29:10;29.60;64.20
52879;DHT22;38747;53.140;6.498;2022-07-18T12:31:46;29.60;63.90
52879;DHT22;38747;53.140;6.498;2022-07-18T12:34:15;29.70;62.50
52879;DHT22;38747;53.140;6.498;2022-07-18T12:36:56;29.70;62.20
52879;DHT22;38747;53.140;6.498;2022-07-18T12:39:32;29.80;63.00
52879;DHT22;38747;53.140;6.498;2022-07-18T12:41:59;29.80;60.60
52879;DHT22;38747;53.140;6.498;2022-07-18T12:44:26;29.70;62.80
52879;DHT22;38747;53.140;6.498;2022-07-18T12:46:52;29.60;62.90
52879;DHT22;38747;53.140;6.498;2022-07-18T12:49:18;29.40;62.60
52879;DHT22;38747;53.140;6.498;2022-07-18T12:51:44;29.20;62.50
52879;DHT22;38747;53.140;6.498;2022-07-18T12:54:10;29.30;61.60
52879;DHT22;38747;53.140;6.498;2022-07-18T12:56:36;29.40;62.40
52879;DHT22;38747;53.140;6.498;2022-07-18T12:59:01;29.50;62.60
52879;DHT22;38747;53.140;6.498;2022-07-18T13:01:27;29.70;61.70
52879;DHT22;38747;53.140;6.498;2022-07-18T13:03:52;29.80;62.20
52879;DHT22;38747;53.140;6.498;2022-07-18T13:06:18;30.10;62.30
52879;DHT22;38747;53.140;6.498;2022-07-18T13:08:44;30.30;61.80
52879;DHT22;38747;53.140;6.498;2022-07-18T13:11:10;30.40;61.10
52879;DHT22;38747;53.140;6.498;2022-07-18T13:13:35;30.50;60.60
52879;DHT22;38747;53.140;6.498;2022-07-18T13:16:01;30.70;60.00
52879;DHT22;38747;53.140;6.498;2022-07-18T13:18:27;30.80;59.70
52879;DHT22;38747;53.140;6.498;2022-07-18T13:20:52;30.80;60.40
52879;DHT22;38747;53.140;6.498;2022-07-18T13:23:18;30.70;60.20
52879;DHT22;38747;53.140;6.498;2022-07-18T13:25:44;30.50;60.00
52879;DHT22;38747;53.140;6.498;2022-07-18T13:28:10;30.30;60.30
52879;DHT22;38747;53.140;6.498;2022-07-18T13:30:35;30.10;59.20
52879;DHT22;38747;53.140;6.498;2022-07-18T13:33:03;29.90;58.90
52879;DHT22;38747;53.140;6.498;2022-07-18T13:35:29;29.90;59.30
52879;DHT22;38747;53.140;6.498;2022-07-18T13:37:55;30.00;59.80
52879;DHT22;38747;53.140;6.498;2022-07-18T13:40:21;30.10;61.30
52879;DHT22;38747;53.140;6.498;2022-07-18T13:42:46;30.20;59.90
52879;DHT22;38747;53.140;6.498;2022-07-18T13:45:12;30.20;59.90
52879;DHT22;38747;53.140;6.498;2022-07-18T13:47:41;30.40;59.20
52879;DHT22;38747;53.140;6.498;2022-07-18T13:50:08;30.60;59.70
52879;DHT22;38747;53.140;6.498;2022-07-18T13:52:34;30.70;60.40
52879;DHT22;38747;53.140;6.498;2022-07-18T13:55:00;30.90;59.50
52879;DHT22;38747;53.140;6.498;2022-07-18T13:57:26;31.00;58.70
52879;DHT22;38747;53.140;6.498;2022-07-18T13:59:51;31.00;59.10
52879;DHT22;38747;53.140;6.498;2022-07-18T14:02:18;31.20;61.10
52879;DHT22;38747;53.140;6.498;2022-07-18T14:04:43;31.20;59.00
52879;DHT22;38747;53.140;6.498;2022-07-18T14:07:09;31.20;59.40
52879;DHT22;38747;53.140;6.498;2022-07-18T14:09:37;31.10;58.90
52879;DHT22;38747;53.140;6.498;2022-07-18T14:12:03;31.00;59.50
52879;DHT22;38747;53.140;6.498;2022-07-18T14:14:29;30.90;59.10
52879;DHT22;38747;53.140;6.498;2022-07-18T14:16:54;30.70;58.90
52879;DHT22;38747;53.140;6.498;2022-07-18T14:19:20;30.50;60.60
52879;DHT22;38747;53.140;6.498;2022-07-18T14:21:46;30.40;60.00
52879;DHT22;38747;53.140;6.498;2022-07-18T14:24:12;30.20;60.40
52879;DHT22;38747;53.140;6.498;2022-07-18T14:26:37;30.10;61.60
52879;DHT22;38747;53.140;6.498;2022-07-18T14:29:03;30.10;63.20
52879;DHT22;38747;53.140;6.498;2022-07-18T14:31:28;30.00;62.10
52879;DHT22;38747;53.140;6.498;2022-07-18T14:33:54;29.90;61.40
52879;DHT22;38747;53.140;6.498;2022-07-18T14:36:20;29.80;61.50
52879;DHT22;38747;53.140;6.498;2022-07-18T14:38:45;29.90;61.10
52879;DHT22;38747;53.140;6.498;2022-07-18T14:41:12;30.00;61.10
52879;DHT22;38747;53.140;6.498;2022-07-18T14:43:38;30.00;62.00
52879;DHT22;38747;53.140;6.498;2022-07-18T14:46:04;30.10;62.40
52879;DHT22;38747;53.140;6.498;2022-07-18T14:48:29;30.10;61.80
52879;DHT22;38747;53.140;6.498;2022-07-18T14:50:55;30.20;62.30
52879;DHT22;38747;53.140;6.498;2022-07-18T14:53:21;30.30;62.70
52879;DHT22;38747;53.140;6.498;2022-07-18T14:55:46;30.40;62.30
52879;DHT22;38747;53.140;6.498;2022-07-18T14:58:12;30.40;61.40
52879;DHT22;38747;53.140;6.498;2022-07-18T15:00:38;30.40;61.00
52879;DHT22;38747;53.140;6.498;2022-07-18T15:03:04;30.50;61.10
52879;DHT22;38747;53.140;6.498;2022-07-18T15:05:29;30.50;61.90
52879;DHT22;38747;53.140;6.498;2022-07-18T15:07:57;30.60;62.40
52879;DHT22;38747;53.140;6.498;2022-07-18T15:10:22;30.50;60.60
52879;DHT22;38747;53.140;6.498;2022-07-18T15:12:48;30.30;60.60
52879;DHT22;38747;53.140;6.498;2022-07-18T15:15:13;30.20;61.20
52879;DHT22;38747;53.140;6.498;2022-07-18T15:17:39;30.10;60.10
52879;DHT22;38747;53.140;6.498;2022-07-18T15:20:05;30.10;60.00
52879;DHT22;38747;53.140;6.498;2022-07-18T15:22:31;30.00;57.90
52879;DHT22;38747;53.140;6.498;2022-07-18T15:24:57;30.00;58.50
52879;DHT22;38747;53.140;6.498;2022-07-18T15:27:23;30.00;59.50
52879;DHT22;38747;53.140;6.498;2022-07-18T15:29:50;29.90;59.00
52879;DHT22;38747;53.140;6.498;2022-07-18T15:32:15;29.80;59.10
52879;DHT22;38747;53.140;6.498;2022-07-18T15:34:41;29.80;59.40
52879;DHT22;38747;53.140;6.498;2022-07-18T15:37:07;29.70;58.40
52879;DHT22;38747;53.140;6.498;2022-07-18T15:39:33;29.80;59.30
52879;DHT22;38747;53.140;6.498;2022-07-18T15:41:59;29.80;59.30
52879;DHT22;38747;53.140;6.498;2022-07-18T15:44:26;29.70;59.00
52879;DHT22;38747;53.140;6.498;2022-07-18T15:46:52;29.70;59.00
52879;DHT22;38747;53.140;6.498;2022-07-18T15:49:17;29.70;58.50
52879;DHT22;38747;53.140;6.498;2022-07-18T15:51:43;29.60;59.20
52879;DHT22;38747;53.140;6.498;2022-07-18T15:54:12;29.60;59.60
52879;DHT22;38747;53.140;6.498;2022-07-18T15:56:38;29.50;58.60
52879;DHT22;38747;53.140;6.498;2022-07-18T15:59:04;29.50;58.80
52879;DHT22;38747;53.140;6.498;2022-07-18T16:01:29;29.50;59.20
52879;DHT22;38747;53.140;6.498;2022-07-18T16:03:55;29.40;59.60
52879;DHT22;38747;53.140;6.498;2022-07-18T16:06:20;29.40;59.10
52879;DHT22;38747;53.140;6.498;2022-07-18T16:08:46;29.40;59.00